Docena, Alabama
Current Conditions -  °F | °C
As of 3:53 AM on Saturday 20 Dec 2014 (Local Time) from KBHM Reporting Station
Haze Haze  
Wind Chill: 37°   Ceiling: 2500
Heat Index: 40°   Visibility: 5mi
Dew Point: 38°   Wind: 5mph
Humidity: 93%   Direction: 340°NNW
Pressure: 30.19"   Gusts: NA
Location:  33.56°N, 86.93°W
Report Text: KBHM 200953Z 34004KT 5SM BR OVC025 04/03 A3019 RMK AO2 SLP226 T00440033
Loading
Personal Weather Stations






























Interactive Weather Map New forecast layout! Learn more

10-Day Weather Forecast

Advertisements
Track Severe Weather on mobile